Historyczne dane pomiarowe

Dodano dane terminowe – wersja testowa.

Dane z okresu 1951-2019

Wersja bazy: 1.34 [2019-03-16, lista zmian], aktualizacja planowana na 2019-04-15

Dane meteo z obszaru Polski uzyskane na podstawie danych udostępnionych przez Instytut Meteorologii i Gospodarki Wodnej – Państwowy Instytut Badawczy.

 

Wybierz Datę:    

       

TemperaturaWilgotnośćWiatrCiśnienieOpadyŚniegCzas trwania zjawisk
 Stacja t tx tn tng RH VA  wxwx mslp ppp RRR   cm mm wxwxwxwxwxwxwx
1961-08-14 14.3 20.2 7.6 3.4 81.5- 3.7 1.3---- 0.0------------
1961-08-13 12.3 16.7 10.0 13.0 91.0- 5.0 1.0---- 2.4------------
1961-08-12 16.8 22.8 14.0 9.9 93.5- 8.0 1.3---- 14.3------------
1961-08-11 20.0 26.6 18.2 14.0 88.5- 4.3 1.7---- 0.1------------
1961-08-10 23.7 30.6 17.2 13.0 85.0- 1.3 1.0---- 0.0------------
1961-08-09 22.4 28.3 17.3 13.7 79.0- 5.0 1.3---- 0.8------------
1961-08-08 19.3 24.8 14.6 13.9 87.5- 5.0 1.3---- 0.0------------
1961-08-07 21.5 25.0 14.3 9.0 77.5- 6.0 2.3---- 10.1------------
1961-08-06 22.8 30.0 13.5 8.1 68.8- 1.0 2.0---- 0.0------------
1961-08-05 19.2 25.9 14.7 11.8 78.3- 3.0 1.3---- 0.0------------
1961-08-04 16.1 22.6 7.3 1.8 75.3- 6.3 1.0---- 0.0------------
1961-08-03 16.0 20.6 11.3 10.1 84.0- 5.3 0.7---- 0.0------------
1961-08-02 18.0 26.3 9.5 4.5 76.5- 1.7 2.7---- 0.3------------
1961-08-01 15.1 22.5 9.3 3.7 78.8- 3.0 2.0---- 0.0------------
1961-07-31 13.1 16.8 11.3 11.1 90.5- 5.7 3.3---- 2.5------------
1961-07-30 12.7 16.0 11.0 8.3 88.0- 8.0 2.7---- 14.2------------
1961-07-29 13.4 18.5 11.9 11.0 82.0- 6.0 2.7---- 1.6------------
1961-07-28 18.0 22.3 16.3 14.4 88.0- 7.7 1.3---- 14.9------------
1961-07-27 19.2 25.9 13.2 6.7 82.3- 6.3 2.7---- 4.5------------
1961-07-26 16.8 23.2 8.2 9.1 67.0- 0.0 2.0---- 0.0------------
1961-07-25 13.2 17.0 8.8 2.8 80.3- 7.7 1.0---- 0.0------------
1961-07-24 12.6 18.3 10.3 4.7 84.0- 5.3 0.3---- 0.0------------
1961-07-23 15.0 20.0 10.3 8.8 79.3- 5.3 0.7---- 0.0------------
1961-07-22 15.1 19.9 12.1 8.9 90.5- 6.0 1.0---- 1.7------------
1961-07-21 15.7 20.4 10.3 4.6 79.5- 6.0 2.3---- 0.0------------
1961-07-20 13.2 20.1 10.3 4.6 91.5- 5.7 1.0---- 2.1------------
1961-07-19 14.3 19.8 11.0 5.7 89.3- 5.0 1.3---- 2.8------------
1961-07-18 15.1 20.8 10.7 4.3 84.3- 5.7 1.3---- 1.9------------
1961-07-17 13.5 19.6 10.8 5.7 82.8- 4.7 3.0---- 1.5------------
1961-07-16 16.8 23.3 13.5 10.8 80.3- 5.7 1.0---- 0.0------------
1961-07-15 18.4 24.3 15.4 11.3 80.8- 5.7 2.0---- 24.3------------
1961-07-14 16.5 20.9 11.0 7.3 68.3- 5.3 3.0---- 0.5------------
1961-07-13 19.4 27.0 14.5 9.2 80.3- 3.3 2.3---- 51.5------------
1961-07-12 20.7 28.2 13.1 8.7 77.8- 3.0 1.3---- 0.5------------
1961-07-11 16.5 23.3 7.5 0.6 79.8- 3.7 0.7---- 0.0------------
1961-07-10 14.3 19.5 9.8 4.3 79.0- 5.0 2.0---- 0.9------------
1961-07-09 14.5 18.7 9.3 3.9 85.8- 6.7 1.3---- 3.1------------
1961-07-08 15.0 22.3 7.4 2.7 74.0- 3.7 0.3---- 0.0------------
1961-07-07 13.0 17.6 9.7 6.7 81.8- 6.7 0.3---- 0.0------------
1961-07-06 13.2 16.9 9.1 4.7 74.0- 6.7 1.7---- 0.0------------
1961-07-05 14.0 18.6 11.9 10.6 70.8- 5.3 1.3---- 0.2------------
1961-07-04 20.5 29.5 15.1 10.9 79.0- 5.0 2.3---- 17.3------------
1961-07-03 22.8 31.8 12.3 7.5 70.0- 0.3 1.0---- 0.0------------
1961-07-02 20.5 29.8 11.9 6.3 71.5- 0.0 0.7---- 0.0------------
1961-07-01 19.9 27.3 9.2 5.6 73.8- 1.0 0.3---- 0.0------------
1961-06-30 17.5 25.3 8.5 4.1 75.5- 0.3 0.7---- 0.0------------
1961-06-29 15.7 21.8 8.0 2.3 74.0- 1.7 1.3---- 0.0------------
1961-06-28 13.7 22.0 12.0 13.2 77.5- 3.7 2.7---- 0.0------------
1961-06-27 23.6 31.3 14.8 9.8 72.8- 5.3 2.3---- 29.3------------
1961-06-26 21.8 29.0 16.0 10.3 72.5- 4.7 1.0---- 0.0------------
1961-06-25 23.3 30.5 13.0 6.3 62.3- 0.0 1.7---- 0.0------------
1961-06-24 18.3 24.8 10.5 5.8 81.0- 4.0 0.7---- 0.0------------
1961-06-23 18.3 23.5 14.2 9.8 78.3- 1.0 2.3---- 0.0------------
1961-06-22 19.9 27.3 8.8 3.0 69.0- 3.7 1.0---- 8.2------------
1961-06-21 18.1 25.0 5.3 0.6 60.5- 2.3 2.7---- 0.0------------
1961-06-20 14.8 20.3 11.2 5.1 64.0- 1.3 1.0---- 0.0------------
1961-06-19 17.6 24.8 14.3 9.1 82.5- 5.3 1.3---- 0.0------------
1961-06-18 19.3 28.6 9.7 4.0 67.5- 1.0 1.7---- 0.0------------
1961-06-17 16.0 22.6 8.0 3.3 70.8- 1.3 0.7---- 0.0------------
1961-06-16 14.9 19.6 6.8 1.2 68.3- 2.7 1.0---- 0.0------------
501.9 ms

 

Źródłem pochodzenia danych jest Instytut Meteorologii i Gospodarki Wodnej – Państwowy Instytut Badawczy. Dane Instytutu Meteorologii i Gospodarki Wodnej – Państwowego Instytutu Badawczego zostały przetworzone.

Dane źródłowe można odnaleźć na stronie https://dane.imgw.pl